createdAt,value
2017-12-04T00:01:53.503Z,7.25
2017-12-04T00:02:53.351Z,7.27
2017-12-04T00:04:47.911Z,7.35
2017-12-04T00:05:47.943Z,7.25
2017-12-04T00:07:43.687Z,7.27
2017-12-04T00:08:43.887Z,7.40
2017-12-04T00:10:38.254Z,7.35
2017-12-04T00:11:38.519Z,7.34
2017-12-04T00:13:34.199Z,7.39
2017-12-04T00:14:34.671Z,7.34
2017-12-04T00:16:28.527Z,7.32
2017-12-04T00:17:28.255Z,7.32
2017-12-04T00:19:21.944Z,7.40
2017-12-04T00:20:23.224Z,7.45
2017-12-04T00:22:18.551Z,7.42
2017-12-04T00:23:18.351Z,7.40
2017-12-04T00:25:12.472Z,7.43
2017-12-04T00:26:13.472Z,7.37
2017-12-04T00:28:06.912Z,7.49
2017-12-04T00:29:07.050Z,7.53
2017-12-04T00:31:03.248Z,7.50
2017-12-04T00:32:03.176Z,7.46
2017-12-04T00:33:58.063Z,7.43
2017-12-04T00:34:58.272Z,7.39
2017-12-04T00:36:52.768Z,7.27
2017-12-04T00:37:52.704Z,7.20
2017-12-04T00:39:48.616Z,7.32
2017-12-04T00:40:48.856Z,7.24
2017-12-04T00:42:44.632Z,7.28
2017-12-04T00:43:44.872Z,7.31
2017-12-04T00:45:40.522Z,7.34
2017-12-04T00:46:40.688Z,7.27
2017-12-04T00:48:34.424Z,7.34
2017-12-04T00:49:34.993Z,7.32
2017-12-04T00:51:27.680Z,7.42
2017-12-04T00:52:27.481Z,7.40
2017-12-04T00:54:22.313Z,7.35
2017-12-04T00:55:22.313Z,7.42
2017-12-04T00:57:16.216Z,7.50
2017-12-04T00:58:16.178Z,7.45
2017-12-04T01:00:10.721Z,7.42
2017-12-04T01:01:10.698Z,7.42
2017-12-04T01:03:02.809Z,7.40
2017-12-04T01:04:02.905Z,7.53
2017-12-04T01:05:59.025Z,7.45
2017-12-04T01:06:58.945Z,7.40
2017-12-04T01:08:53.337Z,7.49
2017-12-04T01:09:52.641Z,7.52
2017-12-04T01:11:48.505Z,7.53
2017-12-04T01:12:48.266Z,7.53
2017-12-04T01:14:42.002Z,7.50
2017-12-04T01:15:41.946Z,7.49
2017-12-04T01:17:36.655Z,7.60
2017-12-04T01:18:36.802Z,7.52
2017-12-04T01:20:32.689Z,7.58
2017-12-04T01:21:32.666Z,7.60
2017-12-04T01:23:28.593Z,7.58
2017-12-04T01:24:28.506Z,7.58
2017-12-04T01:26:24.546Z,7.67
2017-12-04T01:27:24.498Z,7.58
2017-12-04T01:29:18.938Z,7.64
2017-12-04T01:30:19.114Z,7.67
2017-12-04T01:32:12.178Z,7.68
2017-12-04T01:33:13.587Z,7.71
2017-12-04T01:35:08.827Z,7.68
2017-12-04T01:36:08.914Z,7.79
2017-12-04T01:38:02.555Z,7.80
2017-12-04T01:39:02.867Z,7.82
2017-12-04T01:40:58.547Z,7.68
2017-12-04T01:41:58.891Z,7.67
2017-12-04T01:43:54.195Z,7.64
2017-12-04T01:44:54.091Z,7.63
2017-12-04T01:46:48.629Z,7.57
2017-12-04T01:47:49.275Z,7.49
2017-12-04T01:49:43.236Z,7.58
2017-12-04T01:50:42.227Z,7.53
2017-12-04T01:52:38.427Z,7.50
2017-12-04T01:53:38.291Z,7.53
2017-12-04T01:55:32.853Z,7.61
2017-12-04T01:56:32.691Z,7.67
2017-12-04T01:58:28.196Z,7.67
2017-12-04T01:59:28.467Z,7.61
2017-12-04T02:01:24.364Z,7.80
2017-12-04T02:02:24.364Z,7.67
2017-12-04T02:04:18.876Z,7.71
2017-12-04T02:05:18.844Z,7.74
2017-12-04T02:07:14.852Z,7.75
2017-12-04T02:08:14.804Z,7.80
2017-12-04T02:10:11.132Z,7.82
2017-12-04T02:11:10.829Z,7.80
2017-12-04T02:13:06.380Z,7.69
2017-12-04T02:14:06.677Z,7.64
2017-12-04T02:15:59.868Z,7.69
2017-12-04T02:16:59.764Z,7.64
2017-12-04T02:18:55.572Z,7.79
2017-12-04T02:19:55.741Z,7.77
2017-12-04T02:21:49.005Z,7.63
2017-12-04T02:22:49.013Z,7.72
2017-12-04T02:24:43.549Z,7.68
2017-12-04T02:25:43.897Z,7.55
2017-12-04T02:27:38.213Z,7.64
2017-12-04T02:28:38.293Z,7.67
2017-12-04T02:30:34.117Z,7.68
2017-12-04T02:31:44.318Z,7.63
2017-12-04T02:33:29.277Z,7.61
2017-12-04T02:34:30.373Z,7.64
2017-12-04T02:36:24.957Z,7.68
2017-12-04T02:37:25.133Z,7.61
2017-12-04T02:39:31.062Z,7.72
2017-12-04T02:40:20.878Z,7.57
2017-12-04T02:42:16.910Z,7.64
2017-12-04T02:43:17.174Z,7.60
2017-12-04T02:45:11.606Z,7.58
2017-12-04T02:46:20.150Z,7.52
2017-12-04T02:48:07.503Z,7.67
2017-12-04T02:49:07.487Z,7.67
2017-12-04T02:51:03.582Z,7.72
2017-12-04T02:52:13.206Z,7.63
2017-12-04T02:53:58.188Z,7.69
2017-12-04T02:54:58.301Z,7.63
2017-12-04T02:56:52.638Z,7.72
2017-12-04T02:57:52.742Z,7.71
2017-12-04T02:59:48.590Z,7.63
2017-12-04T03:00:48.494Z,7.71
2017-12-04T03:02:43.566Z,7.74
2017-12-04T03:03:43.494Z,7.64
2017-12-04T03:05:37.982Z,7.63
2017-12-04T03:06:37.831Z,7.72
2017-12-04T03:08:32.431Z,7.80
2017-12-04T03:09:32.639Z,7.71
2017-12-04T03:11:28.470Z,7.63
2017-12-04T03:12:28.695Z,7.77
2017-12-04T03:14:22.311Z,7.82
2017-12-04T03:15:22.095Z,7.80
2017-12-04T03:17:26.615Z,7.75
2017-12-04T03:18:18.183Z,7.80
2017-12-04T03:20:11.704Z,7.85
2017-12-04T03:21:20.384Z,7.82
2017-12-04T03:23:05.327Z,7.79
2017-12-04T03:24:05.064Z,7.87
2017-12-04T03:26:01.040Z,7.80
2017-12-04T03:27:01.176Z,7.83
2017-12-04T03:28:54.929Z,7.97
2017-12-04T03:29:55.545Z,7.92
2017-12-04T03:31:47.606Z,7.90
2017-12-04T03:32:48.542Z,8.00
2017-12-04T03:34:42.573Z,7.97
2017-12-04T03:35:42.325Z,8.00
2017-12-04T03:37:36.759Z,7.95
2017-12-04T03:38:36.990Z,8.02
2017-12-04T03:40:31.557Z,7.98
2017-12-04T03:41:31.598Z,7.92
2017-12-04T03:43:25.166Z,8.01
2017-12-04T03:44:25.294Z,7.92
2017-12-04T03:46:18.277Z,7.86
2017-12-04T03:47:18.590Z,7.97
2017-12-04T03:49:12.942Z,7.93
2017-12-04T03:50:13.062Z,7.85
2017-12-04T03:52:10.886Z,7.90
2017-12-04T03:53:11.174Z,7.92
2017-12-04T03:55:04.454Z,7.98
2017-12-04T03:56:04.430Z,7.79
2017-12-04T03:58:00.174Z,7.80
2017-12-04T03:59:00.015Z,7.92
2017-12-04T04:00:55.630Z,7.92
2017-12-04T04:01:56.351Z,7.80
2017-12-04T04:03:48.887Z,7.89
2017-12-04T04:04:49.630Z,7.86
2017-12-04T04:06:45.031Z,7.79
2017-12-04T04:07:44.903Z,7.89
2017-12-04T04:09:39.199Z,7.93
2017-12-04T04:10:39.399Z,7.90
2017-12-04T04:12:34.039Z,7.93
2017-12-04T04:13:34.119Z,7.79
2017-12-04T04:15:28.287Z,8.02
2017-12-04T04:16:28.312Z,7.93
2017-12-04T04:18:22.624Z,7.95
2017-12-04T04:19:23.503Z,7.83
2017-12-04T04:21:18.647Z,7.82
2017-12-04T04:22:18.976Z,7.83
2017-12-04T04:24:12.288Z,7.89
2017-12-04T04:25:12.316Z,7.77
2017-12-04T04:27:08.392Z,7.72
2017-12-04T04:28:08.400Z,7.72
2017-12-04T04:30:04.480Z,7.69
2017-12-04T04:31:04.328Z,7.64
2017-12-04T04:33:00.529Z,7.68
2017-12-04T04:34:00.288Z,7.61
2017-12-04T04:35:54.248Z,7.63
2017-12-04T04:36:54.112Z,7.63
2017-12-04T04:38:47.328Z,7.75
2017-12-04T04:39:46.705Z,7.63
2017-12-04T04:41:42.656Z,7.74
2017-12-04T04:42:42.544Z,7.67
2017-12-04T04:44:38.593Z,7.74
2017-12-04T04:45:38.697Z,7.79
2017-12-04T04:47:31.953Z,7.75
2017-12-04T04:48:32.025Z,7.68
2017-12-04T04:50:28.163Z,7.80
2017-12-04T04:51:28.236Z,7.82
2017-12-04T04:53:24.196Z,7.79
2017-12-04T04:54:24.294Z,7.86
2017-12-04T04:56:18.036Z,7.79
2017-12-04T04:57:17.637Z,7.82
2017-12-04T04:59:13.669Z,7.93
2017-12-04T05:00:13.597Z,7.89
2017-12-04T05:02:10.447Z,7.97
2017-12-04T05:03:09.612Z,7.92
2017-12-04T05:05:04.341Z,7.92
2017-12-04T05:06:04.040Z,7.80
2017-12-04T05:08:00.197Z,7.67
2017-12-04T05:09:00.285Z,7.69
2017-12-04T05:10:54.821Z,7.87
2017-12-04T05:11:54.709Z,7.80
2017-12-04T05:13:48.701Z,7.82
2017-12-04T05:14:49.621Z,7.77
2017-12-04T05:16:43.349Z,7.79
2017-12-04T05:17:43.277Z,7.90
2017-12-04T05:19:39.334Z,8.00
2017-12-04T05:20:40.038Z,8.01
2017-12-04T05:22:35.630Z,8.01
2017-12-04T05:23:35.589Z,8.00
2017-12-04T05:25:31.606Z,8.01
2017-12-04T05:26:31.334Z,7.98
2017-12-04T05:28:27.382Z,7.95
2017-12-04T05:29:27.325Z,7.98
2017-12-04T05:31:23.358Z,7.95
2017-12-04T05:32:23.262Z,7.90
2017-12-04T05:34:19.397Z,7.92
2017-12-04T05:35:20.310Z,7.97
2017-12-04T05:37:12.519Z,7.95
2017-12-04T05:38:12.406Z,8.04
2017-12-04T05:40:07.959Z,8.01
2017-12-04T05:41:07.199Z,7.95
2017-12-04T05:43:03.215Z,7.90
2017-12-04T05:44:03.215Z,7.97
2017-12-04T05:45:59.311Z,7.98
2017-12-04T05:46:59.095Z,7.98
2017-12-04T05:48:55.255Z,7.98
2017-12-04T05:49:55.423Z,7.92
2017-12-04T05:51:51.135Z,7.95
2017-12-04T05:52:51.207Z,7.87
2017-12-04T05:54:45.743Z,7.93
2017-12-04T05:55:45.919Z,7.89
2017-12-04T05:57:40.191Z,7.98
2017-12-04T05:58:40.128Z,7.92
2017-12-04T06:00:36.248Z,7.93
2017-12-04T06:01:36.856Z,8.01
2017-12-04T06:03:31.650Z,8.00
2017-12-04T06:04:30.768Z,7.92
2017-12-04T06:06:24.352Z,7.98
2017-12-04T06:07:24.384Z,8.04
2017-12-04T06:09:20.480Z,8.07
2017-12-04T06:10:20.448Z,8.16
2017-12-04T06:12:16.400Z,8.04
2017-12-04T06:13:16.348Z,7.93
2017-12-04T06:15:12.641Z,8.04
2017-12-04T06:16:22.456Z,8.04
2017-12-04T06:18:08.456Z,8.08
2017-12-04T06:19:08.409Z,8.04
2017-12-04T06:21:04.265Z,8.04
2017-12-04T06:22:04.312Z,8.05
2017-12-04T06:23:58.680Z,8.05
2017-12-04T06:24:58.875Z,8.07
2017-12-04T06:26:55.385Z,8.22
2017-12-04T06:27:54.680Z,8.11
2017-12-04T06:30:24.490Z,8.18
2017-12-04T06:30:49.009Z,8.12
2017-12-04T06:32:55.409Z,8.22
2017-12-04T06:33:55.020Z,8.22
2017-12-04T06:35:51.017Z,8.25
2017-12-04T06:36:51.176Z,8.12
2017-12-04T06:38:47.225Z,8.12
2017-12-04T06:39:47.193Z,8.19
2017-12-04T06:41:40.456Z,8.20
2017-12-04T06:42:40.433Z,8.22
2017-12-04T06:44:35.096Z,8.11
2017-12-04T06:45:35.152Z,8.19
2017-12-04T06:47:31.064Z,8.10
2017-12-04T06:48:31.177Z,8.05
2017-12-04T06:50:27.044Z,8.00
2017-12-04T06:51:27.232Z,8.02
2017-12-04T06:53:23.904Z,8.04
2017-12-04T06:54:23.206Z,8.10
2017-12-04T06:56:19.297Z,8.23
2017-12-04T06:57:19.392Z,8.22
2017-12-04T06:59:13.513Z,8.20
2017-12-04T07:00:13.905Z,8.36
2017-12-04T07:02:10.369Z,8.19
2017-12-04T07:03:10.057Z,8.26
2017-12-04T07:05:06.369Z,8.28
2017-12-04T07:06:06.513Z,8.25
2017-12-04T07:07:59.217Z,8.29
2017-12-04T07:08:59.288Z,8.25
2017-12-04T07:10:55.343Z,8.22
2017-12-04T07:11:55.305Z,8.18
2017-12-04T07:13:49.743Z,8.30
2017-12-04T07:14:49.783Z,8.22
2017-12-04T07:16:44.278Z,8.20
2017-12-04T07:17:44.497Z,8.25
2017-12-04T07:19:40.392Z,8.33
2017-12-04T07:20:40.311Z,8.25
2017-12-04T07:22:36.263Z,8.36
2017-12-04T07:23:36.343Z,8.34
2017-12-04T07:25:29.823Z,8.28
2017-12-04T07:26:29.799Z,8.29
2017-12-04T07:28:25.880Z,8.22
2017-12-04T07:29:25.696Z,8.34
2017-12-04T07:31:21.663Z,8.40
2017-12-04T07:32:21.935Z,8.40
2017-12-04T07:34:18.688Z,8.55
2017-12-04T07:35:18.752Z,8.45
2017-12-04T07:37:14.768Z,8.50
2017-12-04T07:38:14.687Z,8.40
2017-12-04T07:40:11.759Z,8.37
2017-12-04T07:41:11.701Z,8.36
2017-12-04T07:43:05.688Z,8.34
2017-12-04T07:44:05.680Z,8.56
2017-12-04T07:46:02.047Z,8.52
2017-12-04T07:47:01.993Z,8.52
2017-12-04T07:48:58.848Z,8.56
2017-12-04T07:50:07.881Z,8.59
2017-12-04T07:51:53.528Z,8.59
2017-12-04T07:52:53.176Z,8.53
2017-12-04T07:54:48.851Z,8.62
2017-12-04T07:55:49.017Z,8.62
2017-12-04T07:57:43.521Z,8.76
2017-12-04T07:58:43.547Z,8.63
2017-12-04T08:00:39.721Z,8.59
2017-12-04T08:01:40.201Z,8.62
2017-12-04T08:03:34.777Z,8.76
2017-12-04T08:04:35.082Z,8.81
2017-12-04T08:06:30.290Z,8.74
2017-12-04T08:07:31.060Z,8.86
2017-12-04T08:09:26.121Z,8.81
2017-12-04T08:10:25.785Z,8.79
2017-12-04T08:12:22.124Z,8.86
2017-12-04T08:13:21.913Z,8.83
2017-12-04T08:15:17.993Z,8.84
2017-12-04T08:16:17.833Z,8.84
2017-12-04T08:18:14.121Z,8.89
2017-12-04T08:19:22.011Z,8.92
2017-12-04T08:21:06.854Z,8.95
2017-12-04T08:22:06.777Z,8.86
2017-12-04T08:24:00.938Z,8.83
2017-12-04T08:25:01.266Z,8.74
2017-12-04T08:26:57.041Z,8.76
2017-12-04T08:28:06.682Z,8.81
2017-12-04T08:29:50.915Z,8.94
2017-12-04T08:30:50.747Z,8.95
2017-12-04T08:32:46.842Z,8.89
2017-12-04T08:33:46.857Z,8.87
2017-12-04T08:35:41.906Z,9.04
2017-12-04T08:36:41.697Z,9.08
2017-12-04T08:38:35.778Z,9.13
2017-12-04T08:39:44.474Z,9.23
2017-12-04T08:41:32.026Z,9.11
2017-12-04T08:42:42.219Z,9.14
2017-12-04T08:44:26.995Z,9.15
2017-12-04T08:45:26.411Z,9.11
2017-12-04T08:47:20.866Z,9.14
2017-12-04T08:48:20.610Z,9.18
2017-12-04T08:50:16.627Z,9.23
2017-12-04T08:51:16.787Z,9.23
2017-12-04T08:53:11.603Z,9.26
2017-12-04T08:54:10.613Z,9.29
2017-12-04T08:56:05.124Z,9.33
2017-12-04T08:57:05.163Z,9.46
2017-12-04T08:59:01.267Z,9.39
2017-12-04T09:00:10.004Z,9.54
2017-12-04T09:01:55.581Z,9.78
2017-12-04T09:02:57.771Z,9.83
2017-12-04T09:04:51.918Z,9.78
2017-12-04T09:05:51.755Z,9.76
2017-12-04T09:07:48.051Z,9.75
2017-12-04T09:08:47.867Z,9.69
2017-12-04T09:10:43.836Z,9.54
2017-12-04T09:11:43.836Z,9.56
2017-12-04T09:13:40.724Z,9.42
2017-12-04T09:14:39.812Z,9.53
2017-12-04T09:16:35.724Z,9.58
2017-12-04T09:17:36.196Z,9.69
2017-12-04T09:19:31.806Z,9.53
2017-12-04T09:20:32.668Z,9.51
2017-12-04T09:22:27.748Z,9.74
2017-12-04T09:23:27.789Z,9.72
2017-12-04T09:25:23.709Z,9.89
2017-12-04T09:26:23.949Z,9.91
2017-12-04T09:28:18.366Z,9.68
2017-12-04T09:29:18.109Z,9.64
2017-12-04T09:31:14.164Z,9.83
2017-12-04T09:32:14.356Z,9.84
2017-12-04T09:34:10.276Z,9.69
2017-12-04T09:35:10.253Z,9.79
2017-12-04T09:37:04.660Z,9.79
2017-12-04T09:38:04.533Z,9.83
2017-12-04T09:40:10.677Z,9.74
2017-12-04T09:41:00.508Z,9.72
2017-12-04T09:42:55.133Z,9.72
2017-12-04T09:43:56.038Z,9.74
2017-12-04T09:45:52.262Z,9.68
2017-12-04T09:46:52.053Z,9.56
2017-12-04T09:48:46.693Z,9.57
2017-12-04T09:49:46.981Z,9.54
2017-12-04T09:51:43.612Z,9.66
2017-12-04T09:52:43.565Z,9.74
2017-12-04T09:54:40.670Z,9.68
2017-12-04T09:55:40.766Z,9.72
2017-12-04T09:57:36.893Z,9.71
2017-12-04T09:58:36.541Z,9.76
2017-12-04T10:00:30.995Z,9.74
2017-12-04T10:01:31.230Z,9.69
2017-12-04T10:03:24.622Z,9.51
2017-12-04T10:04:25.710Z,9.54
2017-12-04T10:06:29.118Z,9.64
2017-12-04T10:07:19.086Z,9.72
2017-12-04T10:09:15.318Z,9.69
2017-12-04T10:10:15.174Z,9.71
2017-12-04T10:12:19.104Z,9.68
2017-12-04T10:13:19.695Z,9.78
2017-12-04T10:15:13.615Z,9.78
2017-12-04T10:16:13.231Z,9.81
2017-12-04T10:18:09.265Z,9.79
2017-12-04T10:19:09.199Z,9.91
2017-12-04T10:21:03.750Z,9.78
2017-12-04T10:22:03.798Z,9.66
2017-12-04T10:24:07.312Z,9.64
2017-12-04T10:24:58.168Z,9.58
2017-12-04T10:26:53.048Z,9.56
2017-12-04T10:27:52.775Z,9.60
2017-12-04T10:29:47.336Z,9.69
2017-12-04T10:30:47.504Z,9.81
2017-12-04T10:32:43.416Z,9.74
2017-12-04T10:33:43.136Z,9.83
2017-12-04T10:35:37.888Z,9.87
2017-12-04T10:36:38.952Z,9.94
2017-12-04T10:38:32.952Z,9.91
2017-12-04T10:39:32.480Z,9.76
2017-12-04T10:41:37.232Z,9.83
2017-12-04T10:42:27.768Z,9.91
2017-12-04T10:44:22.953Z,9.87
2017-12-04T10:45:22.680Z,9.93
2017-12-04T10:47:17.489Z,9.99
2017-12-04T10:48:17.320Z,9.93
2017-12-04T10:50:13.233Z,9.99
2017-12-04T10:51:13.464Z,10.07
2017-12-04T10:53:09.188Z,10.02
2017-12-04T10:54:09.161Z,9.94
2017-12-04T10:56:05.160Z,10.14
2017-12-04T10:57:05.161Z,10.17
2017-12-04T10:59:01.353Z,10.22
2017-12-04T11:00:01.506Z,10.23
2017-12-04T11:01:57.497Z,10.22
2017-12-04T11:02:57.177Z,10.05
2017-12-04T11:04:53.321Z,10.07
2017-12-04T11:05:53.249Z,10.09
2017-12-04T11:07:50.226Z,10.20
2017-12-04T11:08:50.250Z,10.20
2017-12-04T11:10:46.233Z,10.23
2017-12-04T11:11:46.242Z,10.15
2017-12-04T11:13:41.826Z,10.25
2017-12-04T11:14:41.874Z,10.27
2017-12-04T11:16:36.122Z,10.11
2017-12-04T11:17:35.674Z,10.22
2017-12-04T11:19:28.574Z,10.17
2017-12-04T11:20:28.593Z,10.08
2017-12-04T11:22:24.594Z,10.07
2017-12-04T11:23:24.730Z,10.08
2017-12-04T11:25:19.114Z,10.08
2017-12-04T11:26:19.146Z,10.17
2017-12-04T11:28:15.978Z,10.18
2017-12-04T11:29:16.210Z,10.18
2017-12-04T11:31:10.442Z,10.26
2017-12-04T11:32:10.682Z,10.22
2017-12-04T11:34:05.363Z,10.29
2017-12-04T11:35:05.490Z,10.30
2017-12-04T11:36:59.179Z,10.27
2017-12-04T11:37:58.195Z,10.38
2017-12-04T11:39:51.633Z,10.47
2017-12-04T11:40:51.665Z,10.53
2017-12-04T11:42:50.641Z,10.51
2017-12-04T11:43:50.801Z,10.55
2017-12-04T11:45:46.704Z,10.52
2017-12-04T11:46:46.709Z,10.55
2017-12-04T11:48:41.201Z,10.52
2017-12-04T11:49:41.185Z,10.64
2017-12-04T11:51:34.794Z,10.66
2017-12-04T11:52:34.730Z,10.59
2017-12-04T11:54:31.554Z,10.56
2017-12-04T11:55:30.978Z,10.63
2017-12-04T11:57:25.473Z,10.51
2017-12-04T11:58:24.146Z,10.61
2017-12-04T12:00:20.534Z,10.60
2017-12-04T12:01:20.446Z,10.64
2017-12-04T12:03:14.222Z,10.70
2017-12-04T12:04:14.838Z,10.55
2017-12-04T12:06:07.574Z,10.56
2017-12-04T12:07:07.431Z,10.63
2017-12-04T12:09:04.671Z,10.66
2017-12-04T12:10:04.559Z,10.47
2017-12-04T12:12:00.119Z,10.96
2017-12-04T12:13:00.327Z,11.33
2017-12-04T12:14:56.347Z,11.67
2017-12-04T12:15:56.854Z,11.49
2017-12-04T12:17:51.983Z,11.44
2017-12-04T12:18:52.695Z,11.43
2017-12-04T12:20:45.215Z,11.55
2017-12-04T12:21:45.290Z,11.62
2017-12-04T12:23:41.294Z,11.72
2017-12-04T12:24:42.054Z,11.73
2017-12-04T12:26:35.903Z,11.39
2017-12-04T12:27:35.831Z,11.40
2017-12-04T12:29:30.191Z,11.19
2017-12-04T12:30:30.343Z,11.17
2017-12-04T12:32:25.743Z,11.43
2017-12-04T12:33:24.744Z,11.95
2017-12-04T12:35:21.959Z,12.16
2017-12-04T12:36:20.815Z,12.12
2017-12-04T12:38:14.495Z,11.96
2017-12-04T12:39:14.271Z,12.02
2017-12-04T12:41:10.415Z,11.86
2017-12-04T12:42:10.279Z,11.60
2017-12-04T12:44:05.000Z,11.58
2017-12-04T12:45:13.583Z,11.58
2017-12-04T12:47:00.807Z,11.57
2017-12-04T12:48:00.813Z,11.58
2017-12-04T12:49:54.592Z,11.43
2017-12-04T12:50:54.599Z,11.33
2017-12-04T12:52:48.590Z,11.28
2017-12-04T12:53:50.016Z,11.18
2017-12-04T12:55:41.160Z,11.28
2017-12-04T12:56:42.248Z,11.25
2017-12-04T12:58:35.816Z,11.32
2017-12-04T12:59:35.928Z,11.32
2017-12-04T13:01:30.504Z,11.33
2017-12-04T13:02:31.040Z,11.42
2017-12-04T13:04:23.992Z,11.32
2017-12-04T13:05:23.809Z,11.28
2017-12-04T13:07:19.665Z,11.18
2017-12-04T13:08:19.816Z,11.04
2017-12-04T13:10:15.865Z,10.92
2017-12-04T13:11:15.854Z,10.94
2017-12-04T13:13:09.608Z,10.91
2017-12-04T13:14:09.537Z,10.73
2017-12-04T13:16:05.577Z,10.88
2017-12-04T13:17:05.497Z,10.94
2017-12-04T13:18:59.393Z,11.09
2017-12-04T13:20:01.314Z,11.17
2017-12-04T13:21:55.169Z,11.27
2017-12-04T13:22:55.056Z,11.19
2017-12-04T13:24:49.336Z,11.21
2017-12-04T13:25:49.392Z,11.10
2017-12-04T13:27:43.828Z,10.99
2017-12-04T13:28:51.595Z,10.94
2017-12-04T13:30:36.827Z,10.94
2017-12-04T13:31:37.995Z,10.89
2017-12-04T13:33:29.923Z,10.73
2017-12-04T13:34:29.835Z,10.76
2017-12-04T13:36:24.243Z,10.67
2017-12-04T13:37:24.387Z,10.52
2017-12-04T13:39:18.885Z,10.70
2017-12-04T13:40:18.759Z,10.82
2017-12-04T13:42:15.079Z,10.74
2017-12-04T13:43:14.751Z,10.84
2017-12-04T13:45:10.919Z,10.88
2017-12-04T13:46:11.015Z,10.78
2017-12-04T13:48:05.335Z,10.85
2017-12-04T13:49:05.559Z,10.91
2017-12-04T13:51:01.559Z,10.81
2017-12-04T13:52:01.287Z,10.76
2017-12-04T13:53:56.023Z,10.94
2017-12-04T13:54:55.855Z,10.99
2017-12-04T13:56:52.367Z,10.78
2017-12-04T13:57:49.359Z,10.85
2017-12-04T13:59:44.191Z,10.86
2017-12-04T14:00:43.839Z,10.92
2017-12-04T14:02:39.943Z,10.96
2017-12-04T14:03:40.063Z,10.89
2017-12-04T14:05:33.567Z,10.76
2017-12-04T14:06:35.616Z,10.82
2017-12-04T14:08:26.679Z,10.73
2017-12-04T14:09:28.955Z,10.86
2017-12-04T14:11:20.024Z,10.79
2017-12-04T14:12:20.951Z,10.67
2017-12-04T14:14:15.343Z,10.53
2017-12-04T14:15:15.256Z,10.48
2017-12-04T14:17:09.817Z,10.51
2017-12-04T14:18:09.865Z,10.53
2017-12-04T14:20:05.521Z,10.56
2017-12-04T14:21:05.913Z,10.64
2017-12-04T14:22:58.785Z,10.74
2017-12-04T14:23:59.080Z,10.68
2017-12-04T14:25:53.201Z,10.81
2017-12-04T14:26:53.986Z,10.81
2017-12-04T14:28:46.881Z,10.81
2017-12-04T14:29:47.865Z,10.71
2017-12-04T14:31:42.914Z,10.79
2017-12-04T14:32:42.908Z,10.68
2017-12-04T14:34:38.937Z,10.70
2017-12-04T14:35:47.162Z,10.55
2017-12-04T14:37:35.834Z,10.51
2017-12-04T14:38:36.018Z,10.59
2017-12-04T14:40:31.938Z,10.66
2017-12-04T14:41:40.185Z,10.48
2017-12-04T14:43:27.970Z,10.64
2017-12-04T14:44:36.570Z,10.51
2017-12-04T14:47:24.158Z,10.40
2017-12-04T14:49:21.302Z,10.36
2017-12-04T14:50:30.126Z,10.34
2017-12-04T14:52:13.943Z,10.30
2017-12-04T14:53:13.895Z,10.26
2017-12-04T14:55:09.735Z,10.20
2017-12-04T14:56:09.622Z,10.11
2017-12-04T14:58:05.334Z,10.18
2017-12-04T14:59:05.511Z,10.17
2017-12-04T15:01:01.982Z,10.12
2017-12-04T15:02:02.135Z,10.11
2017-12-04T15:03:57.701Z,10.17
2017-12-04T15:04:57.741Z,10.23
2017-12-04T15:06:51.320Z,10.20
2017-12-04T15:07:52.166Z,10.14
2017-12-04T15:09:50.238Z,10.07
2017-12-04T15:12:46.255Z,10.11
2017-12-04T15:15:39.278Z,10.17
2017-12-04T15:16:40.302Z,10.08
2017-12-04T15:18:34.214Z,10.22
2017-12-04T15:19:34.237Z,10.17
2017-12-04T15:21:30.398Z,10.09
2017-12-04T15:22:27.702Z,10.09
2017-12-04T15:24:23.422Z,10.09
2017-12-04T15:25:23.367Z,10.08
2017-12-04T15:27:19.518Z,10.09
2017-12-04T15:28:20.614Z,10.12
2017-12-04T15:30:18.207Z,10.07
2017-12-04T15:33:11.479Z,10.09
2017-12-04T15:34:11.503Z,10.05
2017-12-04T15:36:06.106Z,10.08
2017-12-04T15:37:06.226Z,10.22
2017-12-04T15:39:01.786Z,10.22
2017-12-04T15:40:13.034Z,10.23
2017-12-04T15:41:56.377Z,10.20
2017-12-04T15:42:56.450Z,10.18
2017-12-04T15:44:49.947Z,10.23
2017-12-04T15:45:49.986Z,10.22
2017-12-04T15:47:43.515Z,10.20
2017-12-04T15:48:44.070Z,10.08
2017-12-04T15:50:39.530Z,10.23
2017-12-04T15:51:39.578Z,10.09
2017-12-04T15:53:32.955Z,10.08
2017-12-04T15:54:32.875Z,10.09
2017-12-04T15:56:29.092Z,10.04
2017-12-04T15:57:28.939Z,10.07
2017-12-04T15:59:22.524Z,10.09
2017-12-04T16:00:22.451Z,10.18
2017-12-04T16:02:18.684Z,10.23
2017-12-04T16:03:18.571Z,10.23
2017-12-04T16:05:13.056Z,10.08
2017-12-04T16:06:13.219Z,10.23
2017-12-04T16:08:06.332Z,10.27
2017-12-04T16:09:06.460Z,10.09
2017-12-04T16:11:00.851Z,10.09
2017-12-04T16:12:00.859Z,10.22
2017-12-04T16:13:55.215Z,10.07
2017-12-04T16:14:54.755Z,10.09
2017-12-04T16:16:51.075Z,10.07
2017-12-04T16:17:50.960Z,10.04
2017-12-04T16:19:47.030Z,10.14
2017-12-04T16:20:47.084Z,10.22
2017-12-04T16:22:41.435Z,10.07
2017-12-04T16:23:41.564Z,10.05
2017-12-04T16:25:36.124Z,10.09
2017-12-04T16:26:46.188Z,10.07
2017-12-04T16:28:29.261Z,10.09
2017-12-04T16:29:36.628Z,10.09
2017-12-04T16:31:23.708Z,10.02
2017-12-04T16:32:23.687Z,9.99
2017-12-04T16:34:17.189Z,9.94
2017-12-04T16:35:17.109Z,9.90
2017-12-04T16:37:11.629Z,10.02
2017-12-04T16:38:12.365Z,9.99
2017-12-04T16:40:06.049Z,9.90
2017-12-04T16:41:06.294Z,9.93
2017-12-04T16:43:01.974Z,9.78
2017-12-04T16:44:01.982Z,9.90
2017-12-04T16:45:58.216Z,9.99
2017-12-04T16:46:58.064Z,9.96
2017-12-04T16:48:52.470Z,10.09
2017-12-04T16:49:53.476Z,9.91
2017-12-04T16:51:46.432Z,9.90
2017-12-04T16:52:46.432Z,9.87
2017-12-04T16:54:39.575Z,9.97
2017-12-04T16:55:39.512Z,9.91
2017-12-04T16:57:32.440Z,10.05
2017-12-04T16:58:33.551Z,9.89
2017-12-04T17:00:25.440Z,9.75
2017-12-04T17:01:25.454Z,9.84
2017-12-04T17:03:18.550Z,9.81
2017-12-04T17:04:18.494Z,9.79
2017-12-04T17:06:14.591Z,9.81
2017-12-04T17:07:22.318Z,9.76
2017-12-04T17:09:10.632Z,9.76
2017-12-04T17:10:20.975Z,9.71
2017-12-04T17:12:04.031Z,9.68
2017-12-04T17:13:03.999Z,9.68
2017-12-04T17:15:00.032Z,9.75
2017-12-04T17:16:00.365Z,9.71
2017-12-04T17:17:54.177Z,9.71
2017-12-04T17:18:53.537Z,9.69
2017-12-04T17:20:46.569Z,9.58
2017-12-04T17:21:46.572Z,9.72
2017-12-04T17:23:39.529Z,9.72
2017-12-04T17:24:40.763Z,9.68
2017-12-04T17:26:33.019Z,9.66
2017-12-04T17:27:33.035Z,9.75
2017-12-04T17:29:28.035Z,9.72
2017-12-04T17:30:35.299Z,9.74
2017-12-04T17:32:20.523Z,9.71
2017-12-04T17:33:20.563Z,9.72
2017-12-04T17:35:13.595Z,9.72
2017-12-04T17:36:13.691Z,9.68
2017-12-04T17:38:06.532Z,9.72
2017-12-04T17:39:06.547Z,9.69
2017-12-04T17:41:00.604Z,9.75
2017-12-04T17:42:00.548Z,9.69
2017-12-04T17:43:53.563Z,9.75
2017-12-04T17:44:53.707Z,9.69
2017-12-04T17:46:46.636Z,9.75
2017-12-04T17:47:46.596Z,9.68
2017-12-04T17:49:39.516Z,9.74
2017-12-04T17:50:39.564Z,9.71
2017-12-04T17:52:32.852Z,9.72
2017-12-04T17:53:32.581Z,9.71
2017-12-04T17:55:25.700Z,9.74
2017-12-04T17:56:25.556Z,9.69
2017-12-04T17:58:18.524Z,9.79
2017-12-04T17:59:18.532Z,9.71
2017-12-04T18:01:12.068Z,9.74
2017-12-04T18:02:11.575Z,9.78
2017-12-04T18:04:04.645Z,9.79
2017-12-04T18:05:04.540Z,9.81
2017-12-04T18:06:57.549Z,9.78
2017-12-04T18:07:57.685Z,9.71
2017-12-04T18:09:52.260Z,9.75
2017-12-04T18:10:52.309Z,9.69
2017-12-04T18:12:55.557Z,9.66
2017-12-04T18:13:46.909Z,9.68
2017-12-04T18:15:40.269Z,9.71
2017-12-04T18:16:40.549Z,9.72
2017-12-04T18:18:33.605Z,9.71
2017-12-04T18:19:34.677Z,9.58
2017-12-04T18:21:27.221Z,9.69
2017-12-04T18:22:27.141Z,9.56
2017-12-04T18:24:19.662Z,9.61
2017-12-04T18:25:19.519Z,9.56
2017-12-04T18:28:12.742Z,9.66
2017-12-04T18:30:05.486Z,9.72
2017-12-04T18:31:05.725Z,9.72
2017-12-04T18:32:58.878Z,9.72
2017-12-04T18:33:58.637Z,9.75
2017-12-04T18:35:51.871Z,9.75
2017-12-04T18:36:51.638Z,9.72
2017-12-04T18:38:44.725Z,9.79
2017-12-04T18:39:44.757Z,9.72
2017-12-04T18:41:37.478Z,9.72
2017-12-04T18:42:37.510Z,9.66
2017-12-04T18:44:30.822Z,9.76
2017-12-04T18:45:30.582Z,9.71
2017-12-04T18:47:23.896Z,9.74
2017-12-04T18:48:24.246Z,9.66
2017-12-04T18:50:16.495Z,9.58
2017-12-04T18:51:16.640Z,9.65
2017-12-04T18:53:10.007Z,9.72
2017-12-04T18:54:10.239Z,9.68
2017-12-04T18:56:03.278Z,9.57
2017-12-04T18:57:03.400Z,9.51
2017-12-04T18:58:56.542Z,9.50
2017-12-04T18:59:56.711Z,9.53
2017-12-04T19:01:51.015Z,9.43
2017-12-04T19:02:50.087Z,9.54
2017-12-04T19:04:42.999Z,9.56
2017-12-04T19:05:43.000Z,9.57
2017-12-04T19:07:36.321Z,9.60
2017-12-04T19:08:35.975Z,9.58
2017-12-04T19:10:29.096Z,9.56
2017-12-04T19:11:29.160Z,9.54
2017-12-04T19:13:22.168Z,9.54
2017-12-04T19:14:22.128Z,9.60
2017-12-04T19:16:18.080Z,9.65
2017-12-04T19:17:18.176Z,9.72
2017-12-04T19:19:12.576Z,9.64
2017-12-04T19:20:12.616Z,9.58